D/T METAR WX W/DIR W/SPE G/SPE TEMP DEWP
16/01/19 03:50 EGAC 160350Z AUTO 23008KT 9999 FEW043/// 07/05 Q1000 SW (230°) 9.2mph 7°C 5°C
16/01/19 03:20 EGAC 160320Z AUTO 23006KT 200V260 9999 -RA SCT014/// BKN023/// BKN034/// 07/06 Q1000 -RA SW (230°) 6.9mph 7°C 6°C
16/01/19 02:20 EGAC 160220Z AUTO 21014KT 5000 -RA BKN019/// BKN034/// 08/07 Q0999 -RA SSW (210°) 16.1mph 8°C 7°C
16/01/19 01:50 EGAC 160150Z AUTO 20013KT 9999 BKN020/// 08/06 Q1000 SSW (200°) 15.0mph 8°C 6°C
16/01/19 01:20 EGAC 160120Z AUTO 20012KT 9999 SCT024/// 08/06 Q1000 SSW (200°) 13.8mph 8°C 6°C
16/01/19 00:50 EGAC 160050Z AUTO 21013KT 9999 BKN024/// 09/06 Q1001 SSW (210°) 15.0mph 9°C 6°C
15/01/19 23:50 EGAC 152350Z AUTO 20012KT 9999 NCD 08/06 Q1002 SSW (200°) 13.8mph 8°C 6°C
15/01/19 23:20 EGAC 152320Z AUTO 20015KT 9999 NCD 09/06 Q1002 SSW (200°) 17.3mph 9°C 6°C
15/01/19 22:50 EGAC 152250Z AUTO 21014KT 9999 NCD 08/07 Q1003 SSW (210°) 16.1mph 8°C 7°C
15/01/19 21:50 EGAC 152150Z AUTO 20012KT 9999 FEW022/// 08/07 Q1004 SSW (200°) 13.8mph 8°C 7°C
15/01/19 21:20 EGAC 152120Z AUTO 20013KT 9999 NCD 08/07 Q1004 SSW (200°) 15.0mph 8°C 7°C
15/01/19 20:50 EGAC 152050Z AUTO 20010KT 9999 FEW018/// 09/07 Q1005 SSW (200°) 11.5mph 9°C 7°C
15/01/19 20:20 EGAC 152020Z AUTO 20009KT 170V230 9999 BKN015/// BKN038/// 09/08 Q1005 SSW (200°) 10.4mph 9°C 8°C
15/01/19 19:50 EGAC 151950Z AUTO 20009KT 9999 BKN013/// BKN022/// 09/08 Q1006 SSW (200°) 10.4mph 9°C 8°C
15/01/19 19:20 EGAC 151920Z AUTO 21008KT 9999 BKN012/// 09/08 Q1006 SSW (210°) 9.2mph 9°C 8°C
15/01/19 18:50 EGAC 151850Z AUTO 21009KT 9999 BKN007/// OVC011/// 09/08 Q1007 SSW (210°) 10.4mph 9°C 8°C
15/01/19 18:20 EGAC 151820Z AUTO 20011KT 4400 -DZ BKN007/// OVC032/// 09/08 Q1007 -DZ SSW (200°) 12.7mph 9°C 8°C
15/01/19 17:50 EGAC 151750Z AUTO 20010KT 9999 OVC008/// 09/08 Q1007 SSW (200°) 11.5mph 9°C 8°C
15/01/19 17:20 EGAC 151720Z AUTO 21009KT 9999 BKN009/// OVC024/// 09/08 Q1008 SSW (210°) 10.4mph 9°C 8°C
15/01/19 16:50 EGAC 151650Z AUTO 20010KT 6000 -RA BKN009/// OVC019/// 09/08 Q1008 -RA SSW (200°) 11.5mph 9°C 8°C
15/01/19 16:20 EGAC 151620Z 21010KT 9999 7000SW -RA BKN010 OVC016 09/08 Q1008 -RA SSW (210°) 11.5mph 9°C 8°C
15/01/19 15:50 EGAC 151550Z 20012KT 9000 4000N -DZ OVC013 09/08 Q1009 -DZ SSW (200°) 13.8mph 9°C 8°C
15/01/19 15:20 EGAC 151520Z AUTO 21011KT 9999 BKN014/// OVC019/// 09/07 Q1009 SSW (210°) 12.7mph 9°C 7°C
15/01/19 14:20 EGAC 151420Z AUTO 21012KT 4900 -RADZ BKN012/// BKN016/// OVC034/// 09/08 Q1010 -RA -DZ SSW (210°) 13.8mph 9°C 8°C
15/01/19 13:50 EGAC 151350Z AUTO 21011KT 9999 BKN019/// OVC028/// 10/06 Q1011 SSW (210°) 12.7mph 10°C 6°C
15/01/19 12:50 EGAC 151250Z AUTO 22013KT 9999 SCT034/// 10/06 Q1012 SW (220°) 15.0mph 10°C 6°C
15/01/19 12:20 EGAC 151220Z AUTO 21014KT 9999 BKN036/// 10/06 Q1012 SSW (210°) 16.1mph 10°C 6°C
15/01/19 11:50 EGAC 151150Z AUTO 22015KT 9999 BKN042/// 09/06 Q1013 SW (220°) 17.3mph 9°C 6°C
15/01/19 11:20 EGAC 151120Z AUTO 22016KT 9999 OVC045/// 10/06 Q1013 SW (220°) 18.4mph 10°C 6°C
15/01/19 10:50 EGAC 151050Z AUTO 22014KT 9999 OVC046/// 10/06 Q1013 SW (220°) 16.1mph 10°C 6°C
15/01/19 10:20 EGAC 151020Z AUTO 22014KT 9999 BKN044/// 09/06 Q1013 SW (220°) 16.1mph 9°C 6°C
15/01/19 09:50 EGAC 150950Z AUTO 23013KT 9999 OVC042/// 09/06 Q1014 SW (230°) 15.0mph 9°C 6°C
15/01/19 09:20 EGAC 150920Z AUTO 23014KT 9999 BKN043/// 09/06 Q1014 SW (230°) 16.1mph 9°C 6°C
15/01/19 08:50 EGAC 150850Z AUTO 23015KT 9999 BKN043/// 09/06 Q1014 SW (230°) 17.3mph 9°C 6°C
15/01/19 08:20 EGAC 150820Z AUTO 24015KT 9999 FEW043/// 09/06 Q1014 WSW (240°) 17.3mph 9°C 6°C
15/01/19 07:50 EGAC 150750Z AUTO 21006KT 160V250 9999 FEW049/// 08/06 Q1014 SSW (210°) 6.9mph 8°C 6°C
15/01/19 07:20 EGAC 150720Z AUTO 17007KT 9999 SCT015/// 07/06 Q1014 S (170°) 8.1mph 7°C 6°C
15/01/19 06:20 EGAC 150620Z AUTO 21009KT 9999 FEW017/// 08/06 Q1015 SSW (210°) 10.4mph 8°C 6°C
15/01/19 05:50 EGAC 150550Z AUTO 22012KT 9999 NCD 08/06 Q1015 SW (220°) 13.8mph 8°C 6°C
15/01/19 05:20 EGAC 150520Z AUTO 22012KT 9999 NCD 08/06 Q1015 SW (220°) 13.8mph 8°C 6°C
15/01/19 04:50 EGAC 150450Z AUTO 23013KT 9999 NCD 08/06 Q1015 SW (230°) 15.0mph 8°C 6°C
15/01/19 04:20 EGAC 150420Z AUTO 23012KT 9999 NCD 08/06 Q1016 SW (230°) 13.8mph 8°C 6°C
15/01/19 03:50 EGAC 150350Z AUTO 22014KT 9999 NCD 08/06 Q1016 SW (220°) 16.1mph 8°C 6°C
15/01/19 03:20 EGAC 150320Z AUTO 22012KT 9999 NCD 08/06 Q1016 SW (220°) 13.8mph 8°C 6°C
15/01/19 02:20 EGAC 150220Z AUTO 22009KT 9999 NCD 08/07 Q1017 SW (220°) 10.4mph 8°C 7°C
15/01/19 01:50 EGAC 150150Z AUTO 21010KT 9999 NCD 08/07 Q1017 SSW (210°) 11.5mph 8°C 7°C
15/01/19 01:20 EGAC 150120Z AUTO 23012KT 9999 NCD 08/07 Q1017 SW (230°) 13.8mph 8°C 7°C
15/01/19 00:50 EGAC 150050Z AUTO 23012KT 9999 BKN014/// 08/07 Q1017 SW (230°) 13.8mph 8°C 7°C
15/01/19 00:20 EGAC 150020Z AUTO 23011KT 9999 BKN015/// 09/07 Q1017 SW (230°) 12.7mph 9°C 7°C
14/01/19 23:50 EGAC 142350Z AUTO 23011KT 9999 BKN012/// 08/07 Q1018 SW (230°) 12.7mph 8°C 7°C
14/01/19 22:50 EGAC 142250Z AUTO 21009KT 9999 BKN011/// 08/07 Q1018 SSW (210°) 10.4mph 8°C 7°C
14/01/19 22:20 EGAC 142220Z AUTO 21011KT 9999 -RA BKN011/// BKN020/// OVC026/// 08/07 Q1018 -RA SSW (210°) 12.7mph 8°C 7°C
14/01/19 21:50 EGAC 142150Z AUTO 21010KT 9999 BKN011/// 08/07 Q1018 SSW (210°) 11.5mph 8°C 7°C
14/01/19 21:20 EGAC 142120Z AUTO 22010KT 9999 BKN013/// 08/07 Q1018 SW (220°) 11.5mph 8°C 7°C
14/01/19 20:50 EGAC 142050Z AUTO 22011KT 9999 SCT011/// BKN016/// 08/07 Q1019 SW (220°) 12.7mph 8°C 7°C
14/01/19 20:20 EGAC 142020Z AUTO 21010KT 9999 BKN011/// 08/07 Q1019 SSW (210°) 11.5mph 8°C 7°C
14/01/19 19:50 EGAC 141950Z AUTO 21010KT 9999 BKN011/// 08/07 Q1019 SSW (210°) 11.5mph 8°C 7°C
14/01/19 19:20 EGAC 141920Z AUTO 21010KT 9000 -RA FEW013/// SCT021/// BKN031/// 08/06 Q1019 -RA SSW (210°) 11.5mph 8°C 6°C
14/01/19 18:50 EGAC 141850Z AUTO 22012KT 9999 -RA BKN013/// BKN022/// 08/06 Q1019 -RA SW (220°) 13.8mph 8°C 6°C
14/01/19 18:20 EGAC 141820Z AUTO 22012KT 9999 BKN015/// BKN045/// 08/05 Q1019 SW (220°) 13.8mph 8°C 5°C
14/01/19 17:50 EGAC 141750Z AUTO 22012KT 9999 BKN017/// BKN021/// 08/05 Q1020 SW (220°) 13.8mph 8°C 5°C
14/01/19 17:20 EGAC 141720Z AUTO 22011KT 9999 SCT017/// BKN022/// BKN047/// 08/05 Q1020 SW (220°) 12.7mph 8°C 5°C
14/01/19 16:50 EGAC 141650Z AUTO 22011KT 9999 BKN022/// BKN047/// 08/05 Q1020 SW (220°) 12.7mph 8°C 5°C
14/01/19 16:20 EGAC 141620Z AUTO 23012KT 9999 BKN021/// 08/05 Q1020 SW (230°) 13.8mph 8°C 5°C
14/01/19 15:50 EGAC 141550Z AUTO 22010KT 9999 SCT027/// BKN037/// 08/05 Q1020 SW (220°) 11.5mph 8°C 5°C
14/01/19 15:20 EGAC 141520Z AUTO 23009KT 9999 FEW039/// 08/04 Q1020 SW (230°) 10.4mph 8°C 4°C
14/01/19 14:50 EGAC 141450Z AUTO 24008KT 210V280 9999 NCD 08/04 Q1021 WSW (240°) 9.2mph 8°C 4°C
14/01/19 13:50 EGAC 141350Z AUTO 25008KT 9999 FEW042/// 09/04 Q1021 WSW (250°) 9.2mph 9°C 4°C
14/01/19 13:20 EGAC 141320Z AUTO 25010KT 9999 BKN038/// 08/05 Q1021 WSW (250°) 11.5mph 8°C 5°C
14/01/19 12:20 EGAC 141220Z AUTO 26010KT 9999 OVC040/// 08/05 Q1021 W (260°) 11.5mph 8°C 5°C
14/01/19 11:50 EGAC 141150Z AUTO 26010KT 9999 OVC044/// 08/04 Q1021 W (260°) 11.5mph 8°C 4°C
14/01/19 11:20 EGAC 141120Z AUTO 26008KT 9999 BKN043/// 08/03 Q1022 W (260°) 9.2mph 8°C 3°C
14/01/19 10:50 EGAC 141050Z AUTO 25008KT 9999 BKN044/// 08/04 Q1022 WSW (250°) 9.2mph 8°C 4°C
14/01/19 10:20 EGAC 141020Z AUTO 23005KT 200V270 9999 SCT049/// 07/04 Q1022 SW (230°) 5.8mph 7°C 4°C
14/01/19 09:50 EGAC 140950Z AUTO 26005KT 9999 SCT048/// 07/04 Q1022 W (260°) 5.8mph 7°C 4°C
14/01/19 09:20 EGAC 140920Z AUTO 23004KT 200V270 9999 SCT032/// BKN042/// BKN048/// 07/04 Q1022 SW (230°) 4.6mph 7°C 4°C
14/01/19 08:50 EGAC 140850Z AUTO 25005KT 210V310 9999 BKN030/// BKN038/// 07/04 Q1021 WSW (250°) 5.8mph 7°C 4°C
14/01/19 08:20 EGAC 140820Z AUTO 24007KT 9999 SCT034/// BKN049/// 07/04 Q1021 WSW (240°) 8.1mph 7°C 4°C
14/01/19 07:50 EGAC 140750Z AUTO 23006KT 210V280 9999 BKN038/// 07/04 Q1021 SW (230°) 6.9mph 7°C 4°C
14/01/19 07:20 EGAC 140720Z AUTO 24005KT 9999 BKN040/// 07/04 Q1020 WSW (240°) 5.8mph 7°C 4°C
14/01/19 06:50 EGAC 140650Z AUTO 24006KT 220V290 9999 BKN049/// 07/04 Q1020 WSW (240°) 6.9mph 7°C 4°C
14/01/19 06:20 EGAC 140620Z AUTO 24007KT 200V270 9999 FEW038/// BKN044/// 08/04 Q1020 WSW (240°) 8.1mph 8°C 4°C
14/01/19 05:50 EGAC 140550Z AUTO 25006KT 210V300 9999 BKN044/// 07/03 Q1020 WSW (250°) 6.9mph 7°C 3°C
14/01/19 05:20 EGAC 140520Z AUTO 26006KT 210V320 9999 BKN047/// 07/03 Q1020 W (260°) 6.9mph 7°C 3°C
14/01/19 04:50 EGAC 140450Z AUTO 27007KT 220V330 9999 BKN045/// 07/03 Q1020 W (270°) 8.1mph 7°C 3°C
14/01/19 04:20 EGAC 140420Z AUTO 27009G21KT 240V330 9999 BKN048/// 07/02 Q1020 W (270°) 10.4mph 24.2mph 7°C 2°C
14/01/19 03:50 EGAC 140350Z AUTO 28009KT 240V310 9999 BKN048/// 07/02 Q1020 W (280°) 10.4mph 7°C 2°C
14/01/19 03:20 EGAC 140320Z AUTO 29011KT 260V330 9999 BKN044/// 07/02 Q1019 WNW (290°) 12.7mph 7°C 2°C
14/01/19 02:50 EGAC 140250Z AUTO 30008G18KT 260V340 9999 BKN044/// 08/03 Q1019 WNW (300°) 9.2mph 20.7mph 8°C 3°C
14/01/19 02:20 EGAC 140220Z AUTO 28009KT 230V320 9999 BKN044/// 08/03 Q1019 W (280°) 10.4mph 8°C 3°C
14/01/19 01:20 EGAC 140120Z AUTO 28009KT 250V340 9999 SCT047/// 07/04 Q1018 W (280°) 10.4mph 7°C 4°C
14/01/19 00:50 EGAC 140050Z AUTO 30014G26KT 270V330 9999 BKN044/// 08/04 Q1018 WNW (300°) 16.1mph 29.9mph 8°C 4°C
14/01/19 00:20 EGAC 140020Z AUTO 30011KT 9999 -RA FEW025/// SCT036/// BKN045/// 08/04 Q1017 -RA WNW (300°) 12.7mph 8°C 4°C
13/01/19 23:20 EGAC 132320Z AUTO 30013KT 270V330 9999 -RA BKN035/// 08/04 Q1017 -RA WNW (300°) 15.0mph 8°C 4°C
13/01/19 22:50 EGAC 132250Z AUTO 30016KT 9999 BKN033/// 08/04 Q1016 WNW (300°) 18.4mph 8°C 4°C
13/01/19 22:20 EGAC 132220Z AUTO 30018G31KT 9999 FEW034/// 08/03 Q1016 WNW (300°) 20.7mph 35.7mph 8°C 3°C
13/01/19 21:50 EGAC 132150Z AUTO 29020G30KT 9999 NCD 08/03 Q1015 WNW (290°) 23.0mph 34.5mph 8°C 3°C
13/01/19 21:20 EGAC 132120Z AUTO 29018KT 9999 NCD 08/04 Q1015 WNW (290°) 20.7mph 8°C 4°C
13/01/19 20:50 EGAC 132050Z AUTO 29020KT 9999 NCD 08/04 Q1015 WNW (290°) 23.0mph 8°C 4°C
13/01/19 20:20 EGAC 132020Z AUTO 29018G32KT 9999 NCD 08/04 Q1015 WNW (290°) 20.7mph 36.8mph 8°C 4°C
13/01/19 19:50 EGAC 131950Z 29014G24KT 9999 -RA FEW028 SCT036 08/04 Q1015 -RA WNW (290°) 16.1mph 27.6mph 8°C 4°C
13/01/19 19:20 EGAC 131920Z AUTO 29016KT 9999 BKN039/// 08/04 Q1014 WNW (290°) 18.4mph 8°C 4°C
13/01/19 18:50 EGAC 131850Z AUTO 29015KT 9999 SCT043/// 08/04 Q1014 WNW (290°) 17.3mph 8°C 4°C
13/01/19 18:20 EGAC 131820Z AUTO 29015KT 9999 -RA SCT031/// BKN043/// 08/05 Q1014 -RA WNW (290°) 17.3mph 8°C 5°C
13/01/19 17:50 EGAC 131750Z AUTO 30014KT 9999 FEW034/// 08/04 Q1014 WNW (300°) 16.1mph 8°C 4°C
13/01/19 16:50 EGAC 131650Z AUTO 29017KT 9999 NCD 09/03 Q1013 WNW (290°) 19.6mph 9°C 3°C
13/01/19 16:20 EGAC 131620Z AUTO 30020G30KT 9999 FEW049/// 09/04 Q1012 RERA WNW (300°) 23.0mph 34.5mph 9°C 4°C
13/01/19 15:50 EGAC 131550Z AUTO 30018G36KT 260V330 4100 RA FEW023/// BKN035/// 09/05 Q1013 RA WNW (300°) 20.7mph 41.4mph 9°C 5°C
13/01/19 15:20 EGAC 131520Z AUTO 30017G27KT 260V320 9999 SCT047/// 09/04 Q1012 WNW (300°) 19.6mph 31.1mph 9°C 4°C
13/01/19 14:50 EGAC 131450Z AUTO 30016G26KT 260V340 9999 SCT041/// 10/04 Q1012 WNW (300°) 18.4mph 29.9mph 10°C 4°C
13/01/19 14:20 EGAC 131420Z AUTO 29017KT 9999 SCT040/// 10/05 Q1012 WNW (290°) 19.6mph 10°C 5°C
13/01/19 13:20 EGAC 131320Z AUTO 30017G30KT 280V340 9999 SCT030/// BKN040/// BKN048/// 11/06 Q1012 WNW (300°) 19.6mph 34.5mph 11°C 6°C
13/01/19 12:50 EGAC 131250Z AUTO 29019G30KT 9999 SCT039/// BKN049/// 11/06 Q1011 WNW (290°) 21.9mph 34.5mph 11°C 6°C
13/01/19 12:20 EGAC 131220Z AUTO 29020KT 9999 FEW049/// 11/07 Q1012 WNW (290°) 23.0mph 11°C 7°C
13/01/19 11:20 EGAC 131120Z AUTO 28016G26KT 9999 FEW049/// 11/07 Q1012 W (280°) 18.4mph 29.9mph 11°C 7°C
13/01/19 10:50 EGAC 131050Z AUTO 28021G35KT 9999 -RA SCT032/// BKN042/// 11/07 Q1012 -RA W (280°) 24.2mph 40.3mph 11°C 7°C
13/01/19 10:20 EGAC 131020Z AUTO 29017G27KT 9999 BKN029/// 11/08 Q1012 WNW (290°) 19.6mph 31.1mph 11°C 8°C
13/01/19 09:20 EGAC 130920Z AUTO 28016G28KT 9999 -RA SCT028/// 11/09 Q1012 -RA W (280°) 18.4mph 32.2mph 11°C 9°C
13/01/19 08:50 EGAC 130850Z AUTO 28018KT 5000 -RA SCT015/// BKN024/// 10/09 Q1012 -RA W (280°) 20.7mph 10°C 9°C
13/01/19 07:50 EGAC 130750Z AUTO 26018G28KT 7000 -RA FEW014/// SCT023/// BKN029/// 10/09 Q1012 -RA W (260°) 20.7mph 32.2mph 10°C 9°C
13/01/19 07:20 EGAC 130720Z AUTO 26016G29KT 9999 -RA SCT017/// BKN036/// BKN042/// 10/09 Q1012 -RA W (260°) 18.4mph 33.4mph 10°C 9°C
13/01/19 06:50 EGAC 130650Z AUTO 26016KT 9999 -RA FEW011/// SCT021/// BKN047/// 10/09 Q1012 -RA W (260°) 18.4mph 10°C 9°C
13/01/19 05:50 EGAC 130550Z AUTO 26016KT 8000 -RA SCT011/// BKN039/// BKN048/// 10/08 Q1013 -RA W (260°) 18.4mph 10°C 8°C
13/01/19 05:20 EGAC 130520Z AUTO 26018KT 9999 SCT014/// BKN045/// 10/08 Q1013 W (260°) 20.7mph 10°C 8°C
13/01/19 04:50 EGAC 130450Z AUTO 25016G26KT 7000 -RA SCT012/// BKN017/// BKN026/// 10/08 Q1014 -RA WSW (250°) 18.4mph 29.9mph 10°C 8°C
13/01/19 04:20 EGAC 130420Z AUTO 26014G24KT 230V300 9999 BKN012/// 10/08 Q1014 W (260°) 16.1mph 27.6mph 10°C 8°C
13/01/19 03:50 EGAC 130350Z AUTO 24012KT 9000 OVC013/// 10/08 Q1015 WSW (240°) 13.8mph 10°C 8°C
13/01/19 03:20 EGAC 130320Z AUTO 24012KT 210V270 9999 OVC014/// 10/08 Q1015 WSW (240°) 13.8mph 10°C 8°C
13/01/19 02:50 EGAC 130250Z AUTO 25014KT 220V290 9999 OVC013/// 10/08 Q1016 WSW (250°) 16.1mph 10°C 8°C
13/01/19 01:50 EGAC 130150Z AUTO 24014KT 9999 BKN017/// 10/07 Q1016 WSW (240°) 16.1mph 10°C 7°C
13/01/19 01:20 EGAC 130120Z AUTO 24018KT 9999 FEW017/// SCT026/// BKN042/// 10/07 Q1016 WSW (240°) 20.7mph 10°C 7°C
13/01/19 00:50 EGAC 130050Z AUTO 26019G30KT 9999 SCT021/// BKN046/// 10/07 Q1017 W (260°) 21.9mph 34.5mph 10°C 7°C
13/01/19 00:20 EGAC 130020Z AUTO 26019G31KT 9999 BKN020/// 10/07 Q1017 W (260°) 21.9mph 35.7mph 10°C 7°C
12/01/19 23:20 EGAC 122320Z AUTO 26015G31KT 9999 SCT023/// 10/08 Q1017 W (260°) 17.3mph 35.7mph 10°C 8°C
12/01/19 22:50 EGAC 122250Z AUTO 24013KT 9999 SCT023/// 10/08 Q1017 WSW (240°) 15.0mph 10°C 8°C
12/01/19 21:50 EGAC 122150Z AUTO 25014KT 9999 SCT016/// BKN028/// 11/09 Q1019 WSW (250°) 16.1mph 11°C 9°C
12/01/19 21:20 EGAC 122120Z AUTO 25016KT 9999 BKN015/// BKN019/// 11/08 Q1018 WSW (250°) 18.4mph 11°C 8°C
12/01/19 20:50 EGAC 122050Z AUTO 25013KT 9999 BKN020/// 11/09 Q1018 WSW (250°) 15.0mph 11°C 9°C
12/01/19 20:20 EGAC 122020Z AUTO 25014G24KT 220V290 9999 BKN023/// 11/08 Q1019 WSW (250°) 16.1mph 27.6mph 11°C 8°C
12/01/19 19:50 EGAC 121950Z AUTO 25014KT 9999 BKN021/// BKN029/// 11/09 Q1019 WSW (250°) 16.1mph 11°C 9°C
12/01/19 19:20 EGAC 121920Z AUTO 26013KT 9999 BKN024/// 11/09 Q1019 W (260°) 15.0mph 11°C 9°C
12/01/19 18:50 EGAC 121850Z AUTO 26013G23KT 230V290 9999 NCD 11/09 Q1019 W (260°) 15.0mph 26.5mph 11°C 9°C
12/01/19 18:20 EGAC 121820Z AUTO 25011KT 9999 NCD 11/08 Q1019 WSW (250°) 12.7mph 11°C 8°C
12/01/19 17:50 EGAC 121750Z AUTO 26012KT 220V290 9999 NCD 11/08 Q1019 W (260°) 13.8mph 11°C 8°C